地図

経路データ

SID SEASON NUMBER BASIN SUBBASIN NAME ISO_TIME NATURE LAT LON WMO_WIND WMO_PRES WMO_AGENCY TRACK_TYPE DIST2LAND LANDFALL IFLAG USA_AGENCY USA_ATCF_ID USA_LAT USA_LON USA_RECORD USA_STATUS USA_WIND USA_PRES USA_SSHS USA_R34_NE USA_R34_SE USA_R34_SW USA_R34_NW USA_R50_NE USA_R50_SE USA_R50_SW USA_R50_NW USA_R64_NE USA_R64_SE USA_R64_SW USA_R64_NW USA_POCI USA_ROCI USA_RMW USA_EYE TOKYO_LAT TOKYO_LON TOKYO_GRADE TOKYO_WIND TOKYO_PRES TOKYO_R50_DIR TOKYO_R50_LONG TOKYO_R50_SHORT TOKYO_R30_DIR TOKYO_R30_LONG TOKYO_R30_SHORT TOKYO_LAND CMA_LAT CMA_LON CMA_CAT CMA_WIND CMA_PRES HKO_LAT HKO_LON HKO_CAT HKO_WIND HKO_PRES NEWDELHI_LAT NEWDELHI_LON NEWDELHI_GRADE NEWDELHI_WIND NEWDELHI_PRES NEWDELHI_CI NEWDELHI_DP NEWDELHI_POCI REUNION_LAT REUNION_LON REUNION_TYPE REUNION_WIND REUNION_PRES REUNION_TNUM REUNION_CI REUNION_RMW REUNION_R34_NE REUNION_R34_SE REUNION_R34_SW REUNION_R34_NW REUNION_R50_NE REUNION_R50_SE REUNION_R50_SW REUNION_R50_NW REUNION_R64_NE REUNION_R64_SE REUNION_R64_SW REUNION_R64_NW BOM_LAT BOM_LON BOM_TYPE BOM_WIND BOM_PRES BOM_TNUM BOM_CI BOM_RMW BOM_R34_NE BOM_R34_SE BOM_R34_SW BOM_R34_NW BOM_R50_NE BOM_R50_SE BOM_R50_SW BOM_R50_NW BOM_R64_NE BOM_R64_SE BOM_R64_SW BOM_R64_NW BOM_ROCI BOM_POCI BOM_EYE BOM_POS_METHOD BOM_PRES_METHOD NADI_LAT NADI_LON NADI_CAT NADI_WIND NADI_PRES WELLINGTON_LAT WELLINGTON_LON WELLINGTON_WIND WELLINGTON_PRES DS824_LAT DS824_LON DS824_STAGE DS824_WIND DS824_PRES TD9636_LAT TD9636_LON TD9636_STAGE TD9636_WIND TD9636_PRES TD9635_LAT TD9635_LON TD9635_WIND TD9635_PRES TD9635_ROCI NEUMANN_LAT NEUMANN_LON NEUMANN_CLASS NEUMANN_WIND NEUMANN_PRES MLC_LAT MLC_LON MLC_CLASS MLC_WIND MLC_PRES USA_GUST BOM_GUST BOM_GUST_PER REUNION_GUST REUNION_GUST_PER USA_SEAHGT USA_SEARAD_NE USA_SEARAD_SE USA_SEARAD_SW USA_SEARAD_NW STORM_SPEED STORM_DIR
1887191N23088 1887 21 NI BB NOT_NAMED 1887-07-10 00:00:00 TS 22.8000 88.1000 main 0 0 _________O____ -1 22.8000 88.1000 TC 30 8 290
1887191N23088 1887 21 NI BB NOT_NAMED 1887-07-10 03:00:00 TS 22.9336 87.7019 main 0 0 _________PO___ -1 23.0004 87.5028 TC 30 22.8000 88.1000 1 9 290
1887191N23088 1887 21 NI BB NOT_NAMED 1887-07-10 06:00:00 TS 23.1195 87.1367 main 0 0 _________OP___ -1 23.2000 86.9000 TC 30 22.9987 87.4918 1 11 290
1887191N23088 1887 21 NI BB NOT_NAMED 1887-07-10 09:00:00 TS 23.3129 86.5468 main 0 0 _________PP___ -1 23.3999 86.2924 TC 30 23.1970 86.8862 1 11 290
1887191N23088 1887 21 NI BB NOT_NAMED 1887-07-10 12:00:00 TS 23.4984 85.9937 main 0 0 _________OP___ -1 23.6000 85.7000 TC 30 23.3967 86.2875 1 11 291
1887191N23088 1887 21 NI BB NOT_NAMED 1887-07-10 15:00:00 TS 23.6999 85.4211 main 0 0 _________PO___ -1 23.7997 85.1423 TC 30 23.6000 85.7000 1 11 291
1887191N23088 1887 21 NI BB NOT_NAMED 1887-07-10 18:00:00 TS 23.9037 84.8636 main 0 0 _________OP___ -1 24.0000 84.6000 TC 30 23.8075 85.1273 1 11 292
1887191N23088 1887 21 NI BB NOT_NAMED 1887-07-10 21:00:00 TS 24.1108 84.3061 main 0 0 _________PP___ -1 24.2074 84.0425 TC 30 24.0142 84.5697 1 11 292
1887191N23088 1887 21 NI BB NOT_NAMED 1887-07-11 00:00:00 TS 24.3069 83.7637 main 0 0 _________OP___ -1 24.4000 83.5000 TC 30 24.2138 84.0273 1 10 291
1887191N23088 1887 21 NI BB NOT_NAMED 1887-07-11 03:00:00 TS 24.4786 83.2461 main 0 0 _________PO___ -1 24.5573 82.9923 TC 30 24.4000 83.5000 1 10 289
1887191N23088 1887 21 NI BB NOT_NAMED 1887-07-11 06:00:00 TS 24.6338 82.7425 main 0 0 _________OP___ -1 24.7000 82.5000 TC 30 24.5677 82.9850 1 10 289
1887191N23088 1887 21 NI BB NOT_NAMED 1887-07-11 09:00:00 TS 24.7894 82.2421 main 0 0 _________PP___ -1 24.8573 82.0000 TC 30 24.7215 82.4843 1 10 288
1887191N23088 1887 21 NI BB NOT_NAMED 1887-07-11 12:00:00 TS 24.9323 81.7457 main 0 0 _________OP___ -1 25.0000 81.5000 TC 30 24.8646 81.9914 1 9 286
1887191N23088 1887 21 NI BB NOT_NAMED 1887-07-11 15:00:00 TS 25.0499 81.2499 main 0 0 _________PO___ -1 25.0998 80.9997 TC 30 25.0000 81.5000 1 9 284
1887191N23088 1887 21 NI BB NOT_NAMED 1887-07-11 18:00:00 TS 25.1641 80.7377 main 0 0 _________OP___ -1 25.2000 80.5000 TC 30 25.1281 80.9753 1 10 285
1887191N23088 1887 21 NI BB NOT_NAMED 1887-07-11 21:00:00 TS 25.2963 80.2161 main 0 0 _________PP___ -1 25.3425 79.9776 TC 30 25.2501 80.4546 1 10 287
1887191N23088 1887 21 NI BB NOT_NAMED 1887-07-12 00:00:00 TS 25.4360 79.7283 main 0 0 _________OP___ -1 25.5000 79.5000 TC 30 25.3720 79.9566 1 9 289
1887191N23088 1887 21 NI BB NOT_NAMED 1887-07-12 03:00:00 TS 25.5749 79.3137 main 0 0 _________PO___ -1 25.6497 79.1273 TC 30 25.5000 79.5000 1 8 292
1887191N23088 1887 21 NI BB NOT_NAMED 1887-07-12 06:00:00 TS 25.7190 78.9512 main 0 0 _________OP___ -1 25.8000 78.8000 TC 30 25.6380 79.1024 1 7 294
1887191N23088 1887 21 NI BB NOT_NAMED 1887-07-12 09:00:00 TS 25.8670 78.5984 main 0 0 _________PP___ -1 25.9499 78.4499 TC 30 25.7840 78.7470 1 7 296
1887191N23088 1887 21 NI BB NOT_NAMED 1887-07-12 12:00:00 TS 26.0191 78.2590 main 0 0 _________OP___ -1 26.1000 78.1000 TC 30 25.9381 78.4180 1 7 297
1887191N23088 1887 21 NI AS NOT_NAMED 1887-07-12 15:00:00 TS 26.1712 77.9212 main 0 0 _________PO___ -1 26.2425 77.7424 TC 30 26.1000 78.1000 1 7 298
1887191N23088 1887 21 NI AS NOT_NAMED 1887-07-12 18:00:00 TS 26.3252 77.6171 main 0 0 _________OP___ -1 26.4000 77.4000 TC 30 26.2690 77.7799 1 6 301
1887191N23088 1887 21 NI AS NOT_NAMED 1887-07-12 21:00:00 TS 26.5021 77.3097 main 0 0 _________PP___ -1 26.5901 77.0902 TC 30 26.4434 77.4559 1 6 304
1887191N23088 1887 21 NI AS NOT_NAMED 1887-07-13 00:00:00 TS 26.6807 77.0193 main 0 0 _________OP___ -1 26.8000 76.8000 TC 30 26.6211 77.1290 1 5 303
1887191N23088 1887 21 NI AS NOT_NAMED 1887-07-13 03:00:00 NR 26.8000 76.8000 main 0 __________O___ -1 TC 26.8000 76.8000 1 5 302

IBTrACS Databaseについて

本データベースは、米国NOAAが公開する1842年以降の世界の熱帯低気圧のベストトラックデータアーカイブInternational Best Track Archive for Climate Stewardship (IBTrACS)を、ウェブで閲覧しやすい形式に変換したものです。

最終更新日:2021-12-03